»·PEaware :: SWA105 KSAN-KPHX

SWA105 :: KSAN-KPHX

FLIGHT INFORMATION

Flight Status: Arrived
Operator:
Southwest Airlines
More flights by this operator :: More flights under this callsign
Pilot: Maximilliano F. (23467)
Aircraft: BOEING 737-800
(B738)
More flights by this aircraft type
Origin: KSAN San Diego Intl-Lindbergh
United States
Destination: KPHX Phoenix Sky Harbor Intl
United States
More flights between these airports :: More routes between these airports
Route: +ZZOOO2 IPL J18 BZA HOGGZ HYDRR1
File this flight plan on PilotEdge
Remarks: RMK / SIMBRIEF
Altitude:
(Current/Filed)
31,000ft
Speed:
(Current/Filed)
450kts
Departed: 18-Oct-19 08:15 PM
Arrived: 18-Oct-19 09:07 PM
Distance/Time
Traveled:
264nm/0:52
Distance/Time
To Go:
Arrived

Flight Plot

Page will automatically refresh every two minutes.

Flight plan parsing failed; only flown route is shown


Map Options




Map Legend


Flown Route
Filed Route
Departure Airport
Arrival Airport
Navaid (VOR, NDB)
Fix

Horizontal Profiles

Position Reports

Time Latitude Longitude Heading Altitude Ground
Speed
18-Oct-19 19:45 32.732336 -117.195910 307 21ft 0kts
18-Oct-19 19:46 32.732336 -117.195910 307 21ft 0kts
18-Oct-19 19:47 32.732336 -117.195910 307 21ft 0kts
18-Oct-19 19:48 32.732336 -117.195910 307 21ft 0kts
18-Oct-19 19:49 32.732336 -117.195910 307 21ft 0kts
18-Oct-19 19:50 32.732336 -117.195910 307 21ft 0kts
18-Oct-19 19:51 32.732336 -117.195910 307 21ft 0kts
18-Oct-19 19:52 32.732336 -117.195910 307 21ft 0kts
18-Oct-19 19:53 32.732336 -117.195910 307 21ft 0kts
18-Oct-19 19:54 32.732336 -117.195910 307 21ft 0kts
18-Oct-19 19:55 32.732336 -117.195910 307 21ft 0kts
18-Oct-19 19:56 32.732336 -117.195910 307 21ft 0kts
18-Oct-19 19:57 32.732336 -117.195910 307 21ft 0kts
18-Oct-19 19:58 32.732336 -117.195910 307 21ft 0kts
18-Oct-19 19:59 32.732336 -117.195910 307 21ft 0kts
18-Oct-19 20:00 32.732336 -117.195910 307 21ft 0kts
18-Oct-19 20:01 32.732336 -117.195910 307 21ft 0kts
18-Oct-19 20:02 32.732107 -117.195568 310 21ft 2kts
18-Oct-19 20:03 32.731928 -117.195360 320 21ft 0kts
18-Oct-19 20:04 32.731928 -117.195360 320 21ft 0kts
18-Oct-19 20:05 32.731928 -117.195360 320 21ft 0kts
18-Oct-19 20:06 32.731956 -117.195385 324 21ft 0kts
18-Oct-19 20:07 32.732792 -117.194431 24 21ft 0kts
18-Oct-19 20:08 32.732793 -117.194430 24 21ft 0kts
18-Oct-19 20:09 32.733340 -117.194053 51 21ft 7kts
18-Oct-19 20:10 32.732397 -117.189120 107 20ft 18kts
18-Oct-19 20:11 32.731002 -117.183403 106 19ft 17kts
18-Oct-19 20:12 32.729828 -117.178544 106 21ft 10kts
18-Oct-19 20:13 32.729616 -117.176327 72 24ft 6kts
18-Oct-19 20:14 32.730749 -117.178077 287 23ft 50kts
18-Oct-19 20:15 32.740345 -117.226768 281 1205ft 190kts
18-Oct-19 20:16 32.753859 -117.299896 288 3618ft 253kts
18-Oct-19 20:17 32.715932 -117.351938 164 7004ft 275kts
18-Oct-19 20:18 32.660747 -117.285588 129 10013ft 296kts
18-Oct-19 20:19 32.628469 -117.189113 99 12533ft 331kts
18-Oct-19 20:20 32.615376 -117.077414 93 14888ft 374kts
18-Oct-19 20:21 32.605392 -116.951604 96 18123ft 389kts
18-Oct-19 20:22 32.613191 -116.823812 67 20808ft 406kts
18-Oct-19 20:23 32.639192 -116.690384 83 23281ft 431kts
18-Oct-19 20:24 32.652351 -116.547316 82 25734ft 448kts
18-Oct-19 20:25 32.666907 -116.396984 82 27889ft 468kts
18-Oct-19 20:26 32.681724 -116.242108 82 29923ft 485kts
18-Oct-19 20:27 32.696998 -116.079892 83 30966ft 510kts
18-Oct-19 20:28 32.712135 -115.914043 82 30906ft 504kts
18-Oct-19 20:29 32.727424 -115.747917 82 30901ft 506kts
18-Oct-19 20:30 32.742503 -115.581482 82 30904ft 507kts
18-Oct-19 20:31 32.751356 -115.413981 88 30906ft 507kts
18-Oct-19 20:32 32.755166 -115.248114 88 30896ft 507kts
18-Oct-19 20:33 32.758950 -115.080197 88 30897ft 508kts
18-Oct-19 20:34 32.762299 -114.912784 88 30900ft 509kts
18-Oct-19 20:35 32.765614 -114.744315 88 30901ft 509kts
18-Oct-19 20:36 32.768646 -114.576543 88 30904ft 508kts
18-Oct-19 20:37 32.770861 -114.408391 88 29778ft 514kts
18-Oct-19 20:38 32.772872 -114.256074 89 27541ft 485kts
18-Oct-19 20:39 32.774699 -114.101140 88 25346ft 454kts
18-Oct-19 20:40 32.787859 -113.951329 80 24906ft 466kts
18-Oct-19 20:41 32.804530 -113.799789 80 24910ft 463kts
18-Oct-19 20:42 32.845117 -113.659988 54 24915ft 443kts
18-Oct-19 20:43 32.921561 -113.547029 42 24911ft 436kts
18-Oct-19 20:44 33.001178 -113.439837 43 23209ft 435kts
18-Oct-19 20:45 33.079359 -113.333968 43 21524ft 411kts
18-Oct-19 20:46 33.154733 -113.232119 43 20519ft 406kts
18-Oct-19 20:47 33.227763 -113.132889 45 19479ft 394kts
18-Oct-19 20:48 33.271736 -113.017975 77 18919ft 388kts
18-Oct-19 20:49 33.278974 -112.889517 86 17545ft 384kts
18-Oct-19 20:50 33.285294 -112.769163 80 17015ft 356kts
18-Oct-19 20:51 33.296353 -112.653372 80 15545ft 340kts
18-Oct-19 20:52 33.306551 -112.544127 80 14079ft 326kts
18-Oct-19 20:53 33.316614 -112.435388 80 12625ft 331kts
18-Oct-19 20:54 33.326449 -112.327279 82 11185ft 318kts
18-Oct-19 20:55 33.335562 -112.226828 82 10043ft 283kts
18-Oct-19 20:56 33.343565 -112.138389 83 9293ft 245kts
18-Oct-19 20:57 33.347351 -112.057105 91 8664ft 254kts
18-Oct-19 20:58 33.345893 -111.971722 91 7508ft 257kts
18-Oct-19 20:59 33.345058 -111.887874 89 6469ft 242kts
18-Oct-19 21:00 33.346138 -111.808050 88 5138ft 236kts
18-Oct-19 21:01 33.386421 -111.763943 355 4030ft 212kts
18-Oct-19 21:02 33.426046 -111.807913 288 4028ft 202kts
18-Oct-19 21:03 33.430927 -111.870145 270 3889ft 175kts
18-Oct-19 21:04 33.430976 -111.925333 269 2320ft 160kts
18-Oct-19 21:05 33.431021 -111.976779 269 1467ft 154kts
18-Oct-19 21:06 33.431123 -112.011757 282 1139ft 28kts
18-Oct-19 21:07 33.432129 -112.012624 83 1139ft 7kts
18-Oct-19 21:08 33.432766 -112.009729 91 1139ft 4kts

Navigation Log

Ident Type
Flight plan parsing failed, navigation log unavailable